Time;durP1;ratioP1;P1;durP2;ratioP2;P2;SDS_P1;SDS_P2;PMS_P1;PMS_P2;Temp;Humidity;BMP_temperature;BMP_pressure;BME280_temperature;BME280_humidity;BME280_pressure;Samples;Min_cycle;Max_cycle;Signal;HPM_P1;HPM_P2
2023/08/15 00:01:05;;;;;;;17.10;15.40;;;;;;;;;;5105360;28;20658;-73
2023/08/15 00:03:32;;;;;;;17.85;15.95;;;;;;;;;;5098343;28;20035;-74
2023/08/15 00:05:58;;;;;;;20.25;16.65;;;;;;;;;;5102160;28;20035;-74
2023/08/15 00:08:23;;;;;;;17.02;15.32;;;;;;;;;;5103999;28;20376;-71
2023/08/15 00:10:48;;;;;;;18.35;15.07;;;;;;;;;;5102718;28;20113;-73
2023/08/15 00:13:14;;;;;;;16.70;15.20;;;;;;;;;;5085435;28;20036;-73
2023/08/15 00:15:40;;;;;;;16.45;14.73;;;;;;;;;;5102607;28;20055;-73
2023/08/15 00:18:06;;;;;;;16.30;14.55;;;;;;;;;;5104629;28;20061;-73
2023/08/15 00:20:31;;;;;;;16.17;14.57;;;;;;;;;;5100451;28;20494;-73
2023/08/15 00:22:57;;;;;;;16.70;14.90;;;;;;;;;;5104810;28;20035;-73
2023/08/15 00:25:23;;;;;;;17.00;15.18;;;;;;;;;;5103017;28;20518;-73
2023/08/15 00:27:48;;;;;;;16.63;15.23;;;;;;;;;;5099190;28;20034;-73
2023/08/15 00:30:14;;;;;;;16.63;14.98;;;;;;;;;;5101911;28;20031;-73
2023/08/15 00:32:40;;;;;;;16.90;15.05;;;;;;;;;;5092414;28;20107;-73
2023/08/15 00:35:07;;;;;;;15.55;14.07;;;;;;;;;;5093098;28;20111;-73
2023/08/15 00:37:33;;;;;;;16.63;15.13;;;;;;;;;;5096103;28;20048;-73
2023/08/15 00:39:59;;;;;;;15.27;14.02;;;;;;;;;;5100117;28;20036;-73
2023/08/15 00:42:25;;;;;;;16.63;14.93;;;;;;;;;;5104556;28;20027;-73
2023/08/15 00:44:50;;;;;;;16.85;15.07;;;;;;;;;;5091445;28;20101;-73
2023/08/15 00:47:17;;;;;;;16.65;15.10;;;;;;;;;;5091135;28;20036;-73
2023/08/15 00:49:42;;;;;;;15.95;14.50;;;;;;;;;;5104535;28;20038;-73
2023/08/15 00:52:09;;;;;;;15.52;14.20;;;;;;;;;;5093215;28;20032;-73
2023/08/15 00:54:35;;;;;;;16.40;14.75;;;;;;;;;;5084184;28;20479;-73
2023/08/15 00:57:06;;;;;;;17.40;15.43;;;;;;;;;;5087847;28;20119;-73
2023/08/15 00:59:32;;;;;;;16.30;14.68;;;;;;;;;;5099797;28;20612;-73
2023/08/15 01:01:59;;;;;;;17.40;15.80;;;;;;;;;;5101588;28;20503;-74
2023/08/15 01:04:26;;;;;;;16.67;15.18;;;;;;;;;;5087710;28;20539;-73
2023/08/15 01:06:51;;;;;;;18.33;15.35;;;;;;;;;;5092735;28;20028;-73
2023/08/15 01:09:17;;;;;;;17.52;15.80;;;;;;;;;;5101861;28;20051;-74
2023/08/15 01:11:56;;;;;;;19.00;16.95;;;;;;;;;;5099382;28;20031;-73
2023/08/15 01:14:28;;;;;;;17.75;16.15;;;;;;;;;;5094171;28;20040;-73
2023/08/15 01:16:56;;;;;;;16.98;15.40;;;;;;;;;;5104900;28;20031;-73
2023/08/15 01:19:21;;;;;;;17.60;15.77;;;;;;;;;;5104692;28;20043;-73
2023/08/15 01:21:48;;;;;;;18.98;16.10;;;;;;;;;;5113394;27;20031;-74
2023/08/15 01:24:16;;;;;;;16.33;14.70;;;;;;;;;;5099478;28;20046;-73
2023/08/15 01:26:42;;;;;;;18.35;16.65;;;;;;;;;;5105290;28;20023;-73
2023/08/15 01:29:08;;;;;;;18.98;16.30;;;;;;;;;;5094425;28;20436;-73
2023/08/15 01:32:04;;;;;;;18.95;16.77;;;;;;;;;;5075666;28;20046;-73
2023/08/15 01:34:38;;;;;;;20.08;16.95;;;;;;;;;;5086608;28;20063;-73
2023/08/15 01:37:10;;;;;;;18.52;16.63;;;;;;;;;;5107146;28;20037;-73
2023/08/15 01:39:38;;;;;;;18.70;16.88;;;;;;;;;;5097297;28;20081;-73
2023/08/15 01:42:04;;;;;;;18.47;16.57;;;;;;;;;;5102381;28;20048;-74
2023/08/15 01:44:31;;;;;;;18.83;17.13;;;;;;;;;;5103895;28;20035;-73
2023/08/15 01:46:57;;;;;;;18.40;16.45;;;;;;;;;;5108394;27;20043;-73
2023/08/15 01:49:23;;;;;;;20.65;17.27;;;;;;;;;;5101990;28;20023;-73
2023/08/15 01:51:49;;;;;;;20.50;18.27;;;;;;;;;;5104524;28;20487;-73
2023/08/15 01:54:15;;;;;;;19.73;17.70;;;;;;;;;;5106739;27;20043;-73
2023/08/15 01:56:41;;;;;;;18.48;16.20;;;;;;;;;;5102051;28;20031;-73
2023/08/15 01:59:07;;;;;;;18.65;16.80;;;;;;;;;;5090079;28;20039;-73
2023/08/15 02:01:32;;;;;;;18.50;16.63;;;;;;;;;;5103768;27;20072;-73
2023/08/15 02:03:58;;;;;;;18.60;16.85;;;;;;;;;;5087350;28;20040;-73
2023/08/15 02:06:24;;;;;;;18.30;16.50;;;;;;;;;;5108341;27;20060;-73
2023/08/15 02:08:49;;;;;;;19.00;17.30;;;;;;;;;;5105747;28;20038;-73
2023/08/15 02:11:15;;;;;;;17.77;15.98;;;;;;;;;;5104170;28;20244;-73
2023/08/15 02:13:40;;;;;;;18.30;16.60;;;;;;;;;;5103151;28;20027;-73
2023/08/15 02:16:06;;;;;;;18.80;17.00;;;;;;;;;;5104487;28;20050;-73
2023/08/15 02:18:32;;;;;;;18.60;16.75;;;;;;;;;;5107511;28;20114;-73
2023/08/15 02:20:58;;;;;;;17.52;15.82;;;;;;;;;;5104096;28;20040;-73
2023/08/15 02:23:24;;;;;;;17.20;15.70;;;;;;;;;;5096913;28;20044;-73
2023/08/15 02:25:49;;;;;;;17.55;15.90;;;;;;;;;;5102987;28;20036;-73
2023/08/15 02:28:17;;;;;;;17.38;15.60;;;;;;;;;;5098974;28;20543;-73
2023/08/15 02:30:43;;;;;;;17.73;15.77;;;;;;;;;;5104192;28;20119;-73
2023/08/15 02:33:09;;;;;;;16.80;15.02;;;;;;;;;;5103474;28;20111;-73
2023/08/15 02:35:39;;;;;;;17.92;15.85;;;;;;;;;;5098259;28;20122;-73
2023/08/15 02:38:04;;;;;;;18.17;16.33;;;;;;;;;;5103114;28;20518;-73
2023/08/15 02:40:30;;;;;;;18.35;16.70;;;;;;;;;;5104805;28;20055;-73
2023/08/15 02:42:56;;;;;;;18.83;17.02;;;;;;;;;;5091899;28;20035;-73
2023/08/15 02:45:21;;;;;;;18.55;16.95;;;;;;;;;;5095374;28;20445;-73
2023/08/15 02:47:47;;;;;;;19.27;17.17;;;;;;;;;;5093909;28;20133;-73
2023/08/15 02:50:14;;;;;;;20.65;18.45;;;;;;;;;;5089885;28;20036;-73
2023/08/15 02:52:40;;;;;;;20.60;18.42;;;;;;;;;;5103752;28;20066;-73
2023/08/15 02:55:06;;;;;;;19.08;17.30;;;;;;;;;;5104447;27;20035;-71
2023/08/15 02:57:32;;;;;;;17.88;16.08;;;;;;;;;;5106677;28;20407;-74
2023/08/15 02:59:57;;;;;;;19.00;17.10;;;;;;;;;;5097012;28;20046;-73
2023/08/15 03:02:23;;;;;;;18.50;16.90;;;;;;;;;;5098548;28;20027;-73
2023/08/15 03:04:49;;;;;;;18.27;16.58;;;;;;;;;;5104444;28;20031;-74
2023/08/15 03:07:14;;;;;;;18.10;16.25;;;;;;;;;;5094069;28;20043;-74
2023/08/15 03:09:40;;;;;;;18.17;16.67;;;;;;;;;;5089262;28;20039;-72
2023/08/15 03:12:06;;;;;;;18.70;17.02;;;;;;;;;;5104354;28;20108;-74
2023/08/15 03:14:31;;;;;;;19.25;17.23;;;;;;;;;;5104525;28;20035;-72
2023/08/15 03:16:57;;;;;;;18.75;16.70;;;;;;;;;;5096664;28;20039;-73
2023/08/15 03:19:23;;;;;;;20.42;17.42;;;;;;;;;;5097996;28;20479;-71
2023/08/15 03:21:48;;;;;;;19.15;16.95;;;;;;;;;;5098295;28;20031;-74
2023/08/15 03:24:15;;;;;;;20.63;18.40;;;;;;;;;;5091757;28;20036;-74
2023/08/15 03:26:42;;;;;;;24.73;19.35;;;;;;;;;;5101597;28;20028;-72
2023/08/15 03:29:07;;;;;;;21.65;18.75;;;;;;;;;;5102845;28;20045;-73
2023/08/15 03:31:33;;;;;;;20.60;18.42;;;;;;;;;;5105703;28;20398;-74
2023/08/15 03:34:00;;;;;;;19.95;17.88;;;;;;;;;;5102666;28;20044;-74
2023/08/15 03:36:27;;;;;;;21.50;18.88;;;;;;;;;;5098000;28;20403;-73
2023/08/15 03:38:53;;;;;;;20.10;18.30;;;;;;;;;;5080046;28;20110;-72
2023/08/15 03:41:20;;;;;;;22.30;18.35;;;;;;;;;;5104304;28;20617;-73
2023/08/15 03:43:46;;;;;;;21.20;19.17;;;;;;;;;;5093826;28;20098;-73
2023/08/15 03:46:12;;;;;;;20.05;18.05;;;;;;;;;;5092983;28;20157;-73
2023/08/15 03:48:37;;;;;;;19.67;17.75;;;;;;;;;;5098375;28;20027;-73
2023/08/15 03:51:04;;;;;;;19.40;17.48;;;;;;;;;;5118771;27;20050;-73
2023/08/15 03:53:29;;;;;;;20.40;17.80;;;;;;;;;;5095871;28;20031;-74
2023/08/15 03:55:57;;;;;;;19.75;17.67;;;;;;;;;;5099887;28;20070;-73
2023/08/15 03:58:23;;;;;;;23.83;18.95;;;;;;;;;;5103257;28;20027;-73
2023/08/15 04:00:49;;;;;;;23.85;19.63;;;;;;;;;;5088357;28;20055;-74
2023/08/15 04:03:16;;;;;;;25.83;18.27;;;;;;;;;;5089278;28;20035;-74
2023/08/15 04:05:46;;;;;;;20.33;18.33;;;;;;;;;;5097943;28;20048;-74
2023/08/15 04:08:12;;;;;;;20.25;17.58;;;;;;;;;;5081442;28;20031;-74
2023/08/15 04:10:42;;;;;;;22.90;19.80;;;;;;;;;;5080055;28;20040;-74
2023/08/15 04:13:09;;;;;;;20.88;18.80;;;;;;;;;;5103255;28;20040;-74
2023/08/15 04:15:35;;;;;;;20.33;18.23;;;;;;;;;;5096544;28;20036;-74
2023/08/15 04:18:05;;;;;;;22.52;18.35;;;;;;;;;;5091894;28;20050;-74
2023/08/15 04:20:31;;;;;;;20.33;17.35;;;;;;;;;;5086444;28;20045;-74
2023/08/15 04:22:57;;;;;;;20.15;18.17;;;;;;;;;;5088366;28;20036;-74
2023/08/15 04:25:25;;;;;;;25.03;18.83;;;;;;;;;;5102756;28;20045;-74
2023/08/15 04:27:51;;;;;;;22.88;18.48;;;;;;;;;;5101370;28;20070;-74
2023/08/15 04:30:18;;;;;;;20.95;18.73;;;;;;;;;;5088026;28;20103;-74
2023/08/15 04:32:46;;;;;;;27.92;19.60;;;;;;;;;;5088578;28;20422;-74
2023/08/15 04:35:12;;;;;;;20.27;18.35;;;;;;;;;;5095958;28;20043;-74
2023/08/15 04:37:38;;;;;;;22.58;19.63;;;;;;;;;;5099296;28;20058;-74
2023/08/15 04:40:04;;;;;;;23.48;20.83;;;;;;;;;;5097404;28;20043;-74
2023/08/15 04:42:30;;;;;;;23.17;20.83;;;;;;;;;;5096084;28;20047;-74
2023/08/15 04:44:55;;;;;;;23.17;20.98;;;;;;;;;;5084391;28;20032;-74
2023/08/15 04:47:21;;;;;;;22.58;20.15;;;;;;;;;;5072854;28;20405;-74
2023/08/15 04:49:47;;;;;;;22.17;19.95;;;;;;;;;;5089389;28;20086;-73
2023/08/15 04:52:16;;;;;;;21.95;19.73;;;;;;;;;;5106358;27;20052;-73
2023/08/15 04:54:42;;;;;;;21.40;19.20;;;;;;;;;;5106028;28;20028;-73
2023/08/15 04:57:08;;;;;;;23.00;19.98;;;;;;;;;;5099670;28;20040;-73
2023/08/15 04:59:33;;;;;;;25.85;19.88;;;;;;;;;;5100424;28;20148;-73
2023/08/15 05:01:59;;;;;;;21.23;19.10;;;;;;;;;;5103268;28;20398;-73
2023/08/15 05:04:24;;;;;;;21.27;18.70;;;;;;;;;;5106771;28;20040;-73
2023/08/15 05:06:51;;;;;;;20.92;18.88;;;;;;;;;;5080910;28;20032;-73
2023/08/15 05:09:17;;;;;;;20.40;18.45;;;;;;;;;;5103184;28;20062;-73
2023/08/15 05:11:45;;;;;;;20.73;18.83;;;;;;;;;;5102178;28;20036;-73
2023/08/15 05:14:11;;;;;;;19.90;17.73;;;;;;;;;;5106153;28;20467;-73
2023/08/15 05:16:38;;;;;;;19.45;17.63;;;;;;;;;;5107697;28;20035;-73
2023/08/15 05:19:04;;;;;;;19.52;17.73;;;;;;;;;;5094953;28;20540;-73
2023/08/15 05:21:29;;;;;;;19.38;17.35;;;;;;;;;;5093977;28;20028;-73
2023/08/15 05:23:55;;;;;;;19.63;17.75;;;;;;;;;;5099155;28;20563;-73
2023/08/15 05:26:20;;;;;;;19.50;17.40;;;;;;;;;;5108602;28;20035;-73
2023/08/15 05:28:46;;;;;;;17.15;15.65;;;;;;;;;;5101247;28;20441;-73
2023/08/15 05:31:14;;;;;;;15.50;14.10;;;;;;;;;;5096514;28;20032;-73
2023/08/15 05:33:39;;;;;;;15.65;14.27;;;;;;;;;;5100640;28;20637;-73
2023/08/15 05:36:05;;;;;;;15.40;14.20;;;;;;;;;;5105461;28;20063;-74
2023/08/15 05:38:31;;;;;;;14.82;13.63;;;;;;;;;;5105891;28;20066;-72
2023/08/15 05:40:56;;;;;;;15.18;14.00;;;;;;;;;;5107419;28;20035;-72
2023/08/15 05:43:22;;;;;;;15.13;13.68;;;;;;;;;;5107175;28;20640;-72
2023/08/15 05:45:48;;;;;;;14.80;13.50;;;;;;;;;;5108723;28;20050;-72
2023/08/15 05:48:14;;;;;;;15.02;13.82;;;;;;;;;;5106842;28;20053;-73
2023/08/15 05:50:40;;;;;;;15.30;13.77;;;;;;;;;;5107611;28;20039;-72
2023/08/15 05:53:06;;;;;;;15.23;13.88;;;;;;;;;;5103823;28;20027;-72
2023/08/15 05:55:31;;;;;;;15.13;13.75;;;;;;;;;;5107851;28;20057;-73
2023/08/15 05:57:57;;;;;;;14.77;13.43;;;;;;;;;;5108138;28;20046;-72
2023/08/15 06:00:22;;;;;;;15.07;13.60;;;;;;;;;;5103807;28;20027;-72
2023/08/15 06:02:48;;;;;;;15.25;13.65;;;;;;;;;;5106748;28;20441;-72
2023/08/15 06:05:13;;;;;;;15.18;13.88;;;;;;;;;;5090800;27;20044;-72
2023/08/15 06:07:40;;;;;;;14.93;13.55;;;;;;;;;;5107589;28;20081;-72
2023/08/15 06:10:07;;;;;;;15.68;14.27;;;;;;;;;;5107423;28;20073;-72
2023/08/15 06:12:33;;;;;;;15.50;14.05;;;;;;;;;;5110424;28;20028;-72
2023/08/15 06:14:58;;;;;;;15.80;14.15;;;;;;;;;;5108055;28;20174;-72
2023/08/15 06:17:24;;;;;;;15.38;14.00;;;;;;;;;;5103794;28;20372;-72
2023/08/15 06:19:49;;;;;;;16.25;14.48;;;;;;;;;;5106335;28;20040;-72
2023/08/15 06:22:15;;;;;;;15.68;14.35;;;;;;;;;;5107712;28;20440;-72
2023/08/15 06:24:40;;;;;;;15.73;14.30;;;;;;;;;;5106442;28;20143;-72
2023/08/15 06:27:06;;;;;;;20.83;14.15;;;;;;;;;;5101781;28;20748;-72
2023/08/15 06:29:32;;;;;;;15.80;14.13;;;;;;;;;;5107652;28;20450;-72
2023/08/15 06:31:58;;;;;;;15.10;13.90;;;;;;;;;;5107975;28;20089;-72
2023/08/15 06:34:23;;;;;;;14.90;13.70;;;;;;;;;;5106345;27;20036;-72
2023/08/15 06:36:49;;;;;;;14.88;13.40;;;;;;;;;;5104177;28;20665;-72
2023/08/15 06:39:15;;;;;;;14.40;12.95;;;;;;;;;;5107714;28;20057;-72
2023/08/15 06:41:40;;;;;;;14.70;13.43;;;;;;;;;;5107733;28;20101;-71
2023/08/15 06:44:06;;;;;;;13.70;12.40;;;;;;;;;;5104121;28;20502;-72
2023/08/15 06:46:31;;;;;;;13.45;12.35;;;;;;;;;;5106920;28;20700;-72
2023/08/15 06:48:57;;;;;;;13.65;12.35;;;;;;;;;;5102900;28;20035;-72
2023/08/15 06:51:23;;;;;;;13.27;12.00;;;;;;;;;;5101508;28;20039;-72
2023/08/15 06:53:52;;;;;;;13.15;11.93;;;;;;;;;;5103665;28;20044;-72
2023/08/15 06:56:18;;;;;;;13.07;11.65;;;;;;;;;;5116900;28;20032;-72
2023/08/15 06:58:44;;;;;;;13.75;11.93;;;;;;;;;;5111337;28;20092;-73
2023/08/15 07:01:12;;;;;;;12.15;11.10;;;;;;;;;;5103765;28;20023;-73
2023/08/15 07:03:37;;;;;;;13.37;11.23;;;;;;;;;;5106170;28;20031;-73
2023/08/15 07:06:04;;;;;;;11.82;10.75;;;;;;;;;;5104968;28;20031;-72
2023/08/15 07:08:30;;;;;;;12.52;11.38;;;;;;;;;;5106102;28;20035;-72
2023/08/15 07:10:57;;;;;;;12.25;11.25;;;;;;;;;;5106841;28;20043;-73
2023/08/15 07:13:22;;;;;;;11.25;10.27;;;;;;;;;;5100945;28;20160;-73
2023/08/15 07:15:57;;;;;;;11.93;10.90;;;;;;;;;;5104945;28;20110;-72
2023/08/15 07:18:24;;;;;;;11.30;10.40;;;;;;;;;;5105735;28;20059;-72
2023/08/15 07:20:50;;;;;;;12.35;11.15;;;;;;;;;;5103154;27;20082;-72
2023/08/15 07:23:17;;;;;;;12.15;10.95;;;;;;;;;;5101854;28;20024;-72
2023/08/15 07:25:43;;;;;;;12.27;10.98;;;;;;;;;;5106796;28;20035;-72
2023/08/15 07:28:09;;;;;;;12.43;11.23;;;;;;;;;;5104381;28;20054;-72
2023/08/15 07:30:35;;;;;;;12.15;10.95;;;;;;;;;;5105173;28;20118;-73
2023/08/15 07:33:02;;;;;;;12.68;11.68;;;;;;;;;;5102664;28;20043;-72
2023/08/15 07:35:27;;;;;;;12.35;11.35;;;;;;;;;;5106547;28;20632;-72
2023/08/15 07:37:53;;;;;;;15.00;12.50;;;;;;;;;;5106500;28;20110;-73
2023/08/15 07:40:22;;;;;;;14.55;12.77;;;;;;;;;;5104202;28;20065;-72
2023/08/15 07:42:53;;;;;;;13.65;12.38;;;;;;;;;;5107733;28;20038;-73
2023/08/15 07:45:19;;;;;;;13.18;12.05;;;;;;;;;;5106406;28;20402;-72
2023/08/15 07:47:48;;;;;;;12.50;11.40;;;;;;;;;;5104653;28;20040;-73
2023/08/15 07:50:27;;;;;;;13.05;11.73;;;;;;;;;;5102579;28;20545;-73
2023/08/15 07:52:54;;;;;;;12.80;11.63;;;;;;;;;;5106010;28;20476;-73
2023/08/15 07:55:20;;;;;;;12.88;11.57;;;;;;;;;;5106345;28;20083;-73
2023/08/15 07:57:46;;;;;;;13.63;11.98;;;;;;;;;;5102447;28;20041;-72
2023/08/15 08:00:13;;;;;;;12.60;11.25;;;;;;;;;;5102612;28;20031;-73
2023/08/15 08:02:44;;;;;;;12.57;11.48;;;;;;;;;;5105851;28;20111;-72
2023/08/15 08:05:10;;;;;;;12.27;11.20;;;;;;;;;;5105838;28;20027;-73
2023/08/15 08:07:36;;;;;;;13.43;12.18;;;;;;;;;;5097549;28;20064;-72
2023/08/15 08:10:03;;;;;;;12.73;11.52;;;;;;;;;;5103356;28;20066;-72
2023/08/15 08:12:29;;;;;;;15.57;12.30;;;;;;;;;;5105126;28;20042;-73
2023/08/15 08:14:54;;;;;;;13.30;12.18;;;;;;;;;;5105976;28;20039;-72
2023/08/15 08:17:21;;;;;;;13.55;12.25;;;;;;;;;;5102789;28;20070;-72
2023/08/15 08:19:46;;;;;;;12.65;11.52;;;;;;;;;;5101137;28;20027;-73
2023/08/15 08:22:12;;;;;;;13.07;11.73;;;;;;;;;;5105600;28;20028;-73
2023/08/15 08:24:38;;;;;;;13.13;11.93;;;;;;;;;;5104304;28;20042;-72
2023/08/15 08:27:04;;;;;;;14.25;12.63;;;;;;;;;;5104266;28;20039;-73
2023/08/15 08:29:30;;;;;;;13.00;11.63;;;;;;;;;;5099606;28;20069;-73
2023/08/15 08:31:55;;;;;;;13.63;11.68;;;;;;;;;;5096238;28;20436;-73
2023/08/15 08:34:21;;;;;;;12.60;11.43;;;;;;;;;;5100894;28;20093;-73
2023/08/15 08:36:46;;;;;;;12.70;11.35;;;;;;;;;;5104169;28;20027;-73
2023/08/15 08:39:12;;;;;;;13.35;11.55;;;;;;;;;;5105091;28;20514;-73
2023/08/15 08:41:39;;;;;;;12.55;11.48;;;;;;;;;;5105028;28;20035;-73
2023/08/15 08:44:05;;;;;;;12.73;11.52;;;;;;;;;;5103827;28;20040;-73
2023/08/15 08:46:32;;;;;;;12.73;11.73;;;;;;;;;;5105247;28;20050;-73
2023/08/15 08:48:58;;;;;;;13.07;11.77;;;;;;;;;;5104990;28;20040;-73
2023/08/15 08:51:24;;;;;;;12.35;11.10;;;;;;;;;;5103565;28;20039;-72
2023/08/15 08:53:50;;;;;;;12.32;11.30;;;;;;;;;;5103263;28;20035;-72
2023/08/15 08:56:17;;;;;;;12.38;11.30;;;;;;;;;;5105159;28;20046;-73
2023/08/15 08:58:48;;;;;;;12.27;11.25;;;;;;;;;;5104872;28;20414;-73
2023/08/15 09:01:14;;;;;;;12.50;11.30;;;;;;;;;;5102436;28;20031;-73
2023/08/15 09:03:40;;;;;;;11.90;10.60;;;;;;;;;;5105018;28;20054;-73
2023/08/15 09:06:07;;;;;;;12.98;10.65;;;;;;;;;;5105055;28;20144;-73
2023/08/15 09:08:32;;;;;;;11.27;10.27;;;;;;;;;;5104851;28;20486;-73
2023/08/15 09:10:58;;;;;;;12.93;11.13;;;;;;;;;;5103437;28;20058;-72
2023/08/15 09:13:23;;;;;;;11.70;10.65;;;;;;;;;;5104518;28;20024;-73
2023/08/15 09:15:51;;;;;;;13.80;10.55;;;;;;;;;;5103346;28;20096;-73
2023/08/15 09:18:22;;;;;;;11.00;10.10;;;;;;;;;;5103321;28;20031;-73
2023/08/15 09:20:47;;;;;;;11.63;9.55;;;;;;;;;;5101759;28;20028;-73
2023/08/15 09:23:15;;;;;;;11.35;9.95;;;;;;;;;;5104875;28;20506;-73
2023/08/15 09:25:40;;;;;;;10.68;9.60;;;;;;;;;;5104918;28;20035;-73
2023/08/15 09:28:06;;;;;;;11.35;10.18;;;;;;;;;;5101334;28;20031;-73
2023/08/15 09:30:32;;;;;;;10.57;9.63;;;;;;;;;;5097370;28;20043;-73
2023/08/15 09:33:00;;;;;;;11.63;9.60;;;;;;;;;;5102721;28;20043;-73
2023/08/15 09:35:26;;;;;;;12.05;9.45;;;;;;;;;;5104569;28;20439;-73
2023/08/15 09:37:52;;;;;;;10.93;9.27;;;;;;;;;;5106682;28;20160;-73
2023/08/15 09:40:23;;;;;;;10.48;9.45;;;;;;;;;;5103267;28;20376;-73
2023/08/15 09:42:49;;;;;;;9.70;8.70;;;;;;;;;;5108261;27;20024;-73
2023/08/15 09:45:15;;;;;;;11.15;8.77;;;;;;;;;;5108267;28;20035;-73
2023/08/15 09:47:43;;;;;;;9.77;8.10;;;;;;;;;;5106734;28;20027;-73
2023/08/15 09:50:10;;;;;;;11.32;7.97;;;;;;;;;;5103894;28;20070;-73
2023/08/15 09:52:39;;;;;;;8.95;8.15;;;;;;;;;;5108236;28;20031;-73
2023/08/15 09:55:09;;;;;;;9.05;8.30;;;;;;;;;;5106261;27;20052;-73
2023/08/15 09:57:39;;;;;;;10.85;8.32;;;;;;;;;;5104023;28;20069;-73
2023/08/15 10:00:13;;;;;;;9.93;8.45;;;;;;;;;;5107790;28;20039;-73
2023/08/15 10:02:48;;;;;;;9.00;8.20;;;;;;;;;;5107096;28;20042;-73
2023/08/15 10:05:18;;;;;;;10.27;8.20;;;;;;;;;;5103336;28;20039;-74
2023/08/15 10:07:45;;;;;;;9.07;8.32;;;;;;;;;;5107958;27;20636;-74
2023/08/15 10:10:13;;;;;;;10.20;8.35;;;;;;;;;;5101005;28;20513;-73
2023/08/15 10:12:40;;;;;;;9.77;7.97;;;;;;;;;;5099232;28;20577;-73
2023/08/15 10:15:07;;;;;;;8.73;7.85;;;;;;;;;;5099521;28;20534;-73
2023/08/15 10:17:33;;;;;;;8.65;7.88;;;;;;;;;;5099031;28;20119;-73
2023/08/15 10:20:05;;;;;;;13.27;8.48;;;;;;;;;;5105649;28;20118;-73
2023/08/15 10:22:34;;;;;;;9.05;8.27;;;;;;;;;;5103494;28;20031;-73
2023/08/15 10:25:20;;;;;;;15.90;8.65;;;;;;;;;;5101314;28;20483;-73
2023/08/15 10:27:48;;;;;;;9.75;8.32;;;;;;;;;;5104852;27;20035;-73
2023/08/15 10:30:27;;;;;;;9.02;8.27;;;;;;;;;;5103152;28;20036;-73
2023/08/15 10:32:53;;;;;;;9.18;8.43;;;;;;;;;;5106335;28;20717;-73
2023/08/15 10:35:24;;;;;;;9.10;8.40;;;;;;;;;;5107483;28;20027;-73
2023/08/15 10:37:50;;;;;;;8.95;8.05;;;;;;;;;;5106307;28;20035;-74
2023/08/15 10:40:15;;;;;;;9.68;8.80;;;;;;;;;;5105470;28;20027;-73
2023/08/15 10:43:02;;;;;;;9.95;8.95;;;;;;;;;;5106009;28;20027;-73
2023/08/15 10:45:35;;;;;;;9.75;8.90;;;;;;;;;;5105488;28;20702;-72
2023/08/15 10:48:01;;;;;;;9.52;8.73;;;;;;;;;;5105089;28;20134;-73
2023/08/15 10:50:27;;;;;;;9.77;8.77;;;;;;;;;;5105599;28;20474;-73
2023/08/15 10:53:00;;;;;;;9.38;8.68;;;;;;;;;;5107356;28;20052;-73
2023/08/15 10:55:31;;;;;;;10.38;8.82;;;;;;;;;;5104450;27;20487;-73
2023/08/15 10:57:56;;;;;;;10.60;9.50;;;;;;;;;;5105541;27;20062;-73
2023/08/15 11:00:23;;;;;;;9.60;8.68;;;;;;;;;;5105381;28;20027;-73
2023/08/15 11:02:50;;;;;;;10.00;9.20;;;;;;;;;;5107026;27;20426;-73
2023/08/15 11:05:18;;;;;;;11.63;8.73;;;;;;;;;;5107217;28;20031;-73
2023/08/15 11:07:44;;;;;;;12.13;9.80;;;;;;;;;;5104089;27;20042;-73
2023/08/15 11:10:12;;;;;;;9.82;8.93;;;;;;;;;;5105326;28;20039;-73
2023/08/15 11:12:37;;;;;;;11.18;9.20;;;;;;;;;;5096604;28;20621;-71
2023/08/15 11:15:03;;;;;;;9.00;8.23;;;;;;;;;;5106970;28;20552;-72
2023/08/15 11:17:29;;;;;;;8.88;8.18;;;;;;;;;;5104732;28;20038;-72
2023/08/15 11:19:54;;;;;;;9.00;7.65;;;;;;;;;;5100585;28;20422;-71
2023/08/15 11:22:20;;;;;;;13.80;8.23;;;;;;;;;;5100954;27;20032;-72
2023/08/15 11:24:52;;;;;;;9.30;7.70;;;;;;;;;;5106274;28;20039;-72
2023/08/15 11:27:17;;;;;;;10.45;7.03;;;;;;;;;;5103280;28;20039;-72
2023/08/15 11:29:43;;;;;;;8.70;7.97;;;;;;;;;;5115566;28;20103;-72
2023/08/15 11:32:09;;;;;;;8.52;7.45;;;;;;;;;;5130295;28;20039;-73
2023/08/15 11:34:38;;;;;;;8.50;7.70;;;;;;;;;;5132007;27;20039;-72
2023/08/15 11:37:04;;;;;;;8.20;7.40;;;;;;;;;;5104669;28;20039;-72
2023/08/15 11:39:30;;;;;;;7.80;7.10;;;;;;;;;;5102338;28;20131;-72
2023/08/15 11:41:56;;;;;;;9.07;7.05;;;;;;;;;;5104933;28;20145;-72
2023/08/15 11:44:21;;;;;;;8.20;7.40;;;;;;;;;;5105025;28;20104;-72
2023/08/15 11:46:47;;;;;;;8.27;7.53;;;;;;;;;;5103447;28;20032;-72
2023/08/15 11:49:17;;;;;;;9.57;7.60;;;;;;;;;;5104003;28;20110;-72
2023/08/15 11:51:43;;;;;;;17.15;7.95;;;;;;;;;;5103768;28;20583;-72
2023/08/15 11:54:08;;;;;;;8.63;7.82;;;;;;;;;;5103031;28;20048;-72
2023/08/15 11:56:50;;;;;;;8.60;7.90;;;;;;;;;;5104459;28;20084;-72
2023/08/15 11:59:20;;;;;;;8.63;7.72;;;;;;;;;;5092088;28;20032;-72
2023/08/15 12:01:47;;;;;;;10.02;7.82;;;;;;;;;;5102788;28;20028;-72
2023/08/15 12:04:13;;;;;;;8.30;7.70;;;;;;;;;;5104488;28;20040;-72
2023/08/15 12:06:40;;;;;;;10.80;7.65;;;;;;;;;;5104279;28;20104;-72
2023/08/15 12:09:09;;;;;;;8.88;8.02;;;;;;;;;;5104081;28;20035;-72
2023/08/15 12:11:35;;;;;;;8.43;7.63;;;;;;;;;;5099494;28;20130;-72
2023/08/15 12:14:02;;;;;;;9.02;8.23;;;;;;;;;;5100801;28;20106;-72
2023/08/15 12:16:28;;;;;;;9.10;8.20;;;;;;;;;;5103106;28;20487;-72
2023/08/15 12:18:53;;;;;;;8.88;8.18;;;;;;;;;;5103929;28;20042;-72
2023/08/15 12:21:19;;;;;;;9.10;8.25;;;;;;;;;;5099108;28;20035;-72
2023/08/15 12:23:44;;;;;;;9.00;8.30;;;;;;;;;;5104300;28;20047;-72
2023/08/15 12:26:10;;;;;;;10.45;8.70;;;;;;;;;;5103869;28;20050;-72
2023/08/15 12:28:36;;;;;;;9.70;8.45;;;;;;;;;;5101239;28;20028;-72
2023/08/15 12:31:02;;;;;;;9.27;8.13;;;;;;;;;;5102074;28;20039;-72
2023/08/15 12:33:32;;;;;;;8.77;8.07;;;;;;;;;;5103897;28;20103;-72
2023/08/15 12:35:58;;;;;;;8.45;7.70;;;;;;;;;;5104326;28;20535;-72
2023/08/15 12:38:23;;;;;;;8.80;8.00;;;;;;;;;;5103392;28;20035;-72
2023/08/15 12:40:49;;;;;;;8.70;7.90;;;;;;;;;;5105269;28;20035;-72
2023/08/15 12:43:14;;;;;;;12.30;8.07;;;;;;;;;;5099870;28;20028;-72
2023/08/15 12:45:40;;;;;;;9.13;8.23;;;;;;;;;;5103799;28;20046;-72
2023/08/15 12:48:06;;;;;;;9.32;8.40;;;;;;;;;;5103662;28;20413;-72
2023/08/15 12:50:32;;;;;;;11.98;8.48;;;;;;;;;;5101703;28;20024;-72
2023/08/15 12:52:57;;;;;;;9.57;8.68;;;;;;;;;;5103604;28;20039;-72
2023/08/15 12:55:23;;;;;;;9.88;8.88;;;;;;;;;;5103605;28;20036;-72
2023/08/15 12:57:48;;;;;;;12.38;9.57;;;;;;;;;;5102530;28;20043;-72
2023/08/15 13:00:14;;;;;;;10.32;9.35;;;;;;;;;;5102068;28;20032;-72
2023/08/15 13:02:40;;;;;;;11.73;9.40;;;;;;;;;;5125810;28;20081;-72
2023/08/15 13:05:07;;;;;;;10.23;8.88;;;;;;;;;;5127933;28;20089;-72
2023/08/15 13:07:33;;;;;;;10.88;9.55;;;;;;;;;;5111269;28;20118;-72
2023/08/15 13:09:58;;;;;;;10.57;9.10;;;;;;;;;;5115829;27;20039;-73
2023/08/15 13:12:24;;;;;;;13.18;9.35;;;;;;;;;;5104790;28;20073;-72
2023/08/15 13:14:50;;;;;;;13.73;9.65;;;;;;;;;;5102572;28;20039;-72
2023/08/15 13:17:15;;;;;;;10.40;9.40;;;;;;;;;;5107495;27;20027;-72
2023/08/15 13:19:41;;;;;;;14.27;9.57;;;;;;;;;;5107265;28;20085;-72
2023/08/15 13:22:06;;;;;;;10.82;9.77;;;;;;;;;;5106802;28;20031;-72
2023/08/15 13:24:32;;;;;;;12.55;9.55;;;;;;;;;;5094120;28;20069;-72
2023/08/15 13:26:57;;;;;;;12.40;9.90;;;;;;;;;;5103446;28;20039;-72
2023/08/15 13:29:23;;;;;;;10.55;9.43;;;;;;;;;;5106727;28;20042;-72
2023/08/15 13:31:48;;;;;;;10.45;9.40;;;;;;;;;;5102705;28;20097;-72
2023/08/15 13:34:16;;;;;;;10.57;9.63;;;;;;;;;;5103747;27;20047;-72
2023/08/15 13:36:42;;;;;;;10.43;9.40;;;;;;;;;;5107023;28;20118;-72
2023/08/15 13:39:08;;;;;;;10.80;9.30;;;;;;;;;;5106493;28;20092;-71
2023/08/15 13:41:34;;;;;;;13.00;9.38;;;;;;;;;;5101841;28;20031;-72
2023/08/15 13:44:00;;;;;;;10.40;9.25;;;;;;;;;;5106616;28;20105;-72
2023/08/15 13:46:25;;;;;;;10.68;9.43;;;;;;;;;;5106794;27;20036;-72
2023/08/15 13:48:51;;;;;;;9.82;8.80;;;;;;;;;;5106758;28;20039;-72
2023/08/15 13:51:19;;;;;;;10.77;9.27;;;;;;;;;;5101581;28;20520;-72
2023/08/15 13:53:46;;;;;;;10.43;9.43;;;;;;;;;;5106983;28;20073;-72
2023/08/15 13:56:12;;;;;;;10.48;9.48;;;;;;;;;;5106177;28;20043;-72
2023/08/15 13:58:38;;;;;;;11.05;9.30;;;;;;;;;;5101926;28;20032;-72
2023/08/15 14:01:04;;;;;;;11.20;9.45;;;;;;;;;;5106106;28;20355;-72
2023/08/15 14:03:30;;;;;;;10.48;9.30;;;;;;;;;;5106342;28;20035;-72
2023/08/15 14:05:56;;;;;;;10.07;9.02;;;;;;;;;;5106330;28;20051;-72
2023/08/15 14:08:22;;;;;;;10.18;9.20;;;;;;;;;;5102140;27;20096;-72
2023/08/15 14:10:47;;;;;;;12.18;9.88;;;;;;;;;;5111497;27;20034;-72
2023/08/15 14:13:13;;;;;;;10.68;9.68;;;;;;;;;;5106320;28;20039;-72
2023/08/15 14:15:38;;;;;;;15.48;9.25;;;;;;;;;;5107947;27;20035;-72
2023/08/15 14:18:05;;;;;;;10.05;9.05;;;;;;;;;;5105793;27;20036;-72
2023/08/15 14:20:33;;;;;;;10.10;9.30;;;;;;;;;;5108621;27;20031;-72